Terminal Aerodrome Forecast
Issued by NWS

Home | Current Version | Previous Version | Text Only | Print | Product List | Glossary On
Versions: 1 2 3 4 5 6 7 8 9 10 11 12 13 14 15 16 17 18 19 20
632
FTUS45 KVEF 301303 AAA
TAFVGT
TAF AMD
KVGT 301303Z 3013/0112 34015KT P6SM -SHRA BKN040 OVC060
     FM301800 01010KT P6SM VCSH BKN060 OVC100
     FM302100 04008KT P6SM VCSH BKN080 BKN120
     FM010500 35012G20KT P6SM SCT100 BKN250=

USA.gov is the U.S. government's official web portal to all federal, state and local government web resources and services.